createdAt,value
2023-04-19T00:00:44.813Z,10.68
2023-04-19T00:03:24.382Z,10.64
2023-04-19T00:06:12.229Z,10.60
2023-04-19T00:08:49.302Z,10.54
2023-04-19T00:11:28.867Z,10.53
2023-04-19T00:14:03.257Z,10.53
2023-04-19T00:16:40.537Z,10.53
2023-04-19T00:19:16.281Z,10.53
2023-04-19T00:21:49.043Z,10.57
2023-04-19T00:24:27.427Z,10.61
2023-04-19T00:26:58.188Z,10.61
2023-04-19T00:29:37.785Z,10.56
2023-04-19T00:32:39.106Z,10.53
2023-04-19T00:35:13.794Z,10.48
2023-04-19T00:37:45.770Z,10.44
2023-04-19T00:40:51.967Z,10.42
2023-04-19T00:43:34.061Z,10.47
2023-04-19T00:46:09.091Z,10.49
2023-04-19T00:48:39.251Z,10.51
2023-04-19T00:51:11.381Z,10.54
2023-04-19T00:53:47.834Z,10.56
2023-04-19T00:56:43.039Z,10.59
2023-04-19T00:59:12.594Z,10.59
2023-04-19T01:01:53.887Z,10.52
2023-04-19T01:04:44.482Z,10.46
2023-04-19T01:07:18.192Z,10.42
2023-04-19T01:10:16.445Z,10.40
2023-04-19T01:12:53.426Z,10.37
2023-04-19T01:15:26.430Z,10.36
2023-04-19T01:18:00.289Z,10.41
2023-04-19T01:20:29.113Z,10.45
2023-04-19T01:23:24.782Z,10.47
2023-04-19T01:29:51.011Z,10.49
2023-04-19T01:32:29.043Z,10.46
2023-04-19T01:35:12.450Z,10.41
2023-04-19T01:38:06.497Z,10.39
2023-04-19T01:40:39.354Z,10.39
2023-04-19T01:43:19.592Z,10.41
2023-04-19T01:45:53.295Z,10.43
2023-04-19T01:48:29.391Z,10.44
2023-04-19T01:51:25.446Z,10.49
2023-04-19T01:54:00.392Z,10.52
2023-04-19T01:56:42.514Z,10.52
2023-04-19T01:59:17.352Z,10.53
2023-04-19T02:01:48.839Z,10.53
2023-04-19T02:04:24.076Z,10.52
2023-04-19T02:07:08.980Z,10.50
2023-04-19T02:09:39.062Z,10.45
2023-04-19T02:12:12.757Z,10.33
2023-04-19T02:14:49.655Z,10.23
2023-04-19T02:17:25.737Z,10.15
2023-04-19T02:20:27.329Z,10.08
2023-04-19T02:23:03.448Z,10.01
2023-04-19T02:25:38.551Z,9.99
2023-04-19T02:28:15.558Z,9.96
2023-04-19T02:31:14.908Z,9.92
2023-04-19T02:33:46.514Z,9.89
2023-04-19T02:36:19.502Z,9.87
2023-04-19T02:38:55.024Z,9.86
2023-04-19T02:41:36.640Z,9.85
2023-04-19T02:44:15.628Z,9.83
2023-04-19T02:46:55.477Z,9.82
2023-04-19T02:49:28.406Z,9.74
2023-04-19T02:52:02.907Z,9.69
2023-04-19T02:54:36.416Z,9.65
2023-04-19T02:57:16.666Z,9.65
2023-04-19T02:59:48.321Z,9.65
2023-04-19T03:02:22.208Z,9.65
2023-04-19T03:04:55.500Z,9.70
2023-04-19T03:07:30.090Z,9.75
2023-04-19T03:10:01.888Z,9.78
2023-04-19T03:12:43.685Z,9.80
2023-04-19T03:15:20.923Z,9.81
2023-04-19T03:17:57.025Z,9.82
2023-04-19T03:20:58.210Z,9.85
2023-04-19T03:23:52.567Z,9.86
2023-04-19T03:26:25.626Z,9.86
2023-04-19T03:29:05.292Z,9.86
2023-04-19T03:31:56.822Z,9.89
2023-04-19T03:34:33.318Z,9.91
2023-04-19T03:37:08.660Z,9.92
2023-04-19T03:39:38.990Z,9.94
2023-04-19T03:42:15.873Z,9.96
2023-04-19T03:45:27.453Z,9.98
2023-04-19T03:48:02.897Z,9.99
2023-04-19T03:50:47.119Z,10.01
2023-04-19T03:53:25.657Z,10.04
2023-04-19T03:56:03.402Z,10.09
2023-04-19T04:02:03.954Z,10.20
2023-04-19T04:04:46.897Z,10.19
2023-04-19T04:07:25.338Z,10.30
2023-04-19T04:10:50.958Z,10.35
2023-04-19T04:13:36.851Z,10.40
2023-04-19T04:20:01.432Z,10.49
2023-04-19T04:24:07.055Z,10.61
2023-04-19T04:26:52.064Z,10.69
2023-04-19T04:29:51.922Z,10.68
2023-04-19T04:32:29.277Z,10.68
2023-04-19T04:35:12.005Z,10.68
2023-04-19T04:37:51.241Z,10.70
2023-04-19T04:40:40.818Z,10.69
2023-04-19T04:43:13.650Z,10.65
2023-04-19T04:45:56.563Z,10.64
2023-04-19T04:48:36.473Z,10.71
2023-04-19T04:51:16.090Z,10.76
2023-04-19T04:55:09.519Z,10.84
2023-04-19T04:57:54.018Z,10.97
2023-04-19T05:00:55.186Z,11.03
2023-04-19T05:03:57.460Z,11.06
2023-04-19T05:07:24.651Z,11.10
2023-04-19T05:10:04.032Z,11.15
2023-04-19T05:13:04.110Z,11.17
2023-04-19T05:15:51.546Z,11.24
2023-04-19T05:18:30.341Z,11.29
2023-04-19T05:21:52.790Z,11.34
2023-04-19T05:24:30.688Z,11.41
2023-04-19T05:27:30.317Z,11.39
2023-04-19T05:30:29.430Z,11.45
2023-04-19T05:33:27.722Z,11.47
2023-04-19T05:36:34.263Z,11.49
2023-04-19T05:39:28.269Z,11.49
2023-04-19T05:42:12.907Z,11.51
2023-04-19T05:46:12.180Z,11.54
2023-04-19T05:49:42.737Z,11.56
2023-04-19T05:52:51.978Z,11.54
2023-04-19T05:55:34.076Z,11.57
2023-04-19T05:58:53.260Z,11.55
2023-04-19T06:01:59.542Z,11.73
2023-04-19T06:05:23.039Z,11.79
2023-04-19T06:08:16.971Z,11.88
2023-04-19T06:11:51.572Z,12.01
2023-04-19T06:14:54.452Z,12.20
2023-04-19T06:17:34.513Z,12.25
2023-04-19T06:20:22.578Z,12.31
2023-04-19T06:23:18.813Z,12.39
2023-04-19T06:26:46.571Z,12.45
2023-04-19T06:30:04.397Z,12.53
2023-04-19T06:33:26.733Z,12.63
2023-04-19T06:36:20.229Z,12.71
2023-04-19T06:39:17.688Z,12.77
2023-04-19T06:42:20.082Z,12.87
2023-04-19T06:45:30.429Z,12.98
2023-04-19T06:50:40.296Z,13.13
2023-04-19T06:54:30.685Z,13.44
2023-04-19T06:58:15.347Z,13.64
2023-04-19T07:04:41.126Z,13.85
2023-04-19T07:07:46.284Z,13.89
2023-04-19T07:10:38.859Z,14.01
2023-04-19T07:13:17.925Z,14.09
2023-04-19T07:16:07.417Z,14.14
2023-04-19T07:18:54.634Z,14.23
2023-04-19T07:21:52.412Z,14.34
2023-04-19T07:24:53.359Z,14.42
2023-04-19T07:27:25.943Z,14.48
2023-04-19T07:34:11.578Z,14.55
2023-04-19T07:37:30.910Z,14.66
2023-04-19T07:40:09.351Z,14.82
2023-04-19T07:43:16.543Z,14.93
2023-04-19T07:50:37.787Z,15.30
2023-04-19T07:53:15.906Z,15.38
2023-04-19T07:56:24.563Z,15.43
2023-04-19T08:14:34.741Z,15.65
2023-04-19T08:20:34.032Z,15.71
2023-04-19T08:27:54.020Z,15.80
2023-04-19T08:30:43.104Z,15.74
2023-04-19T08:33:32.829Z,15.72
2023-04-19T08:37:00.280Z,15.75
2023-04-19T08:40:05.508Z,15.77
2023-04-19T08:42:50.838Z,15.79
2023-04-19T08:46:09.000Z,15.84
2023-04-19T08:54:10.358Z,15.94
2023-04-19T08:56:54.633Z,16.06
2023-04-19T08:59:30.368Z,16.18
2023-04-19T09:03:01.633Z,16.24
2023-04-19T09:05:46.025Z,16.21
2023-04-19T09:09:05.794Z,16.13
2023-04-19T09:12:10.344Z,16.09
2023-04-19T09:15:04.217Z,16.02
2023-04-19T09:19:19.473Z,15.99
2023-04-19T09:22:56.861Z,16.00
2023-04-19T09:29:36.697Z,16.42
2023-04-19T09:33:34.699Z,16.55
2023-04-19T09:36:09.887Z,16.67
2023-04-19T09:39:06.715Z,16.72
2023-04-19T09:42:58.809Z,16.84
2023-04-19T09:46:03.013Z,16.91
2023-04-19T09:52:57.729Z,16.73
2023-04-19T09:59:20.802Z,16.87
2023-04-19T10:02:20.354Z,17.01
2023-04-19T10:05:21.253Z,17.11
2023-04-19T10:08:15.060Z,17.18
2023-04-19T10:11:03.758Z,17.20
2023-04-19T10:18:37.272Z,17.25
2023-04-19T10:21:10.749Z,17.17
2023-04-19T10:24:15.439Z,17.13
2023-04-19T10:36:15.910Z,16.66
2023-04-19T10:39:07.403Z,16.52
2023-04-19T10:43:00.425Z,16.50
2023-04-19T10:45:56.174Z,16.45
2023-04-19T10:52:37.652Z,16.55
2023-04-19T10:56:29.891Z,16.68
2023-04-19T11:00:02.902Z,17.00
2023-04-19T11:02:40.995Z,17.26
2023-04-19T11:05:13.950Z,17.34
2023-04-19T11:08:05.849Z,17.43
2023-04-19T11:10:59.124Z,17.53
2023-04-19T11:14:06.864Z,17.69
2023-04-19T11:17:22.112Z,17.82
2023-04-19T11:20:48.795Z,17.87
2023-04-19T11:24:39.145Z,17.90
2023-04-19T11:27:11.212Z,17.81
2023-04-19T11:29:46.024Z,17.72
2023-04-19T11:32:28.380Z,17.65
2023-04-19T11:35:44.530Z,17.54
2023-04-19T11:39:50.865Z,17.53
2023-04-19T11:42:39.117Z,17.54
2023-04-19T11:45:44.085Z,17.48
2023-04-19T11:48:43.375Z,17.40
2023-04-19T11:51:47.800Z,17.43
2023-04-19T11:54:28.810Z,17.45
2023-04-19T11:57:54.404Z,17.48
2023-04-19T12:01:42.284Z,17.46
2023-04-19T12:05:19.625Z,17.32
2023-04-19T12:08:55.364Z,17.18
2023-04-19T12:13:20.442Z,16.91
2023-04-19T12:16:06.430Z,16.71
2023-04-19T12:24:44.558Z,16.43
2023-04-19T12:27:15.354Z,16.33
2023-04-19T12:29:45.042Z,16.28
2023-04-19T12:32:16.364Z,16.21
2023-04-19T12:34:48.218Z,16.12
2023-04-19T12:37:17.091Z,16.02
2023-04-19T12:39:45.934Z,15.94
2023-04-19T12:42:14.885Z,15.83
2023-04-19T12:44:43.344Z,15.75
2023-04-19T12:47:12.148Z,15.65
2023-04-19T12:49:40.719Z,15.52
2023-04-19T12:52:10.470Z,15.42
2023-04-19T12:54:39.526Z,15.31
2023-04-19T12:57:08.257Z,15.24
2023-04-19T12:59:37.412Z,15.19
2023-04-19T13:02:07.314Z,15.13
2023-04-19T13:04:36.776Z,15.10
2023-04-19T13:07:06.476Z,15.06
2023-04-19T13:09:36.085Z,15.02
2023-04-19T13:12:07.804Z,14.97
2023-04-19T13:14:37.415Z,14.91
2023-04-19T13:17:05.992Z,14.83
2023-04-19T13:19:35.116Z,14.75
2023-04-19T13:22:04.407Z,14.72
2023-04-19T13:24:33.041Z,14.69
2023-04-19T13:27:05.934Z,14.66
2023-04-19T13:29:36.953Z,14.61
2023-04-19T13:32:07.884Z,14.54
2023-04-19T13:34:36.620Z,14.43
2023-04-19T13:37:05.365Z,14.32
2023-04-19T13:39:35.158Z,14.20
2023-04-19T13:42:04.265Z,14.10
2023-04-19T13:44:35.121Z,13.99
2023-04-19T13:47:04.463Z,13.89
2023-04-19T13:49:35.794Z,13.84
2023-04-19T13:52:06.628Z,13.80
2023-04-19T13:54:36.840Z,13.76
2023-04-19T13:57:12.737Z,13.71
2023-04-19T13:59:42.676Z,13.64
2023-04-19T14:02:11.353Z,13.51
2023-04-19T14:04:40.312Z,13.42
2023-04-19T14:07:10.076Z,13.31
2023-04-19T14:09:39.064Z,13.21
2023-04-19T14:12:09.479Z,13.10
2023-04-19T14:14:41.429Z,12.99
2023-04-19T14:17:10.037Z,12.87
2023-04-19T14:19:39.076Z,12.78
2023-04-19T14:22:09.272Z,12.60
2023-04-19T14:24:41.337Z,12.64
2023-04-19T14:27:14.226Z,12.56
2023-04-19T14:29:57.621Z,12.48
2023-04-19T14:41:53.962Z,12.24
2023-04-19T14:50:23.626Z,12.09
2023-04-19T14:53:18.335Z,12.07
2023-04-19T15:06:48.874Z,12.08
2023-04-19T15:30:08.632Z,12.05
2023-04-19T15:38:21.525Z,12.07
2023-04-19T16:03:32.140Z,12.16
2023-04-19T16:29:25.649Z,12.10
2023-04-19T16:33:36.245Z,12.16
2023-04-19T16:37:20.614Z,12.17
2023-04-19T16:41:09.247Z,12.16
2023-04-19T16:53:52.844Z,12.18
2023-04-19T16:57:37.661Z,12.19
2023-04-19T17:05:40.891Z,12.16
2023-04-19T17:14:18.731Z,12.26
2023-04-19T17:17:15.871Z,12.34
2023-04-19T17:20:42.394Z,12.38
2023-04-19T17:27:48.569Z,12.48
2023-04-19T17:30:44.445Z,12.46
2023-04-19T17:42:37.174Z,12.43
2023-04-19T17:46:24.198Z,12.38
2023-04-19T17:49:43.693Z,12.31
2023-04-19T17:57:30.411Z,12.27
2023-04-19T18:04:38.699Z,12.26
2023-04-19T18:12:09.681Z,12.22
2023-04-19T18:15:06.811Z,12.21
2023-04-19T18:18:23.578Z,12.20
2023-04-19T18:22:05.222Z,12.20
2023-04-19T18:25:23.277Z,12.18
2023-04-19T18:29:23.934Z,12.16
2023-04-19T18:32:36.354Z,12.13
2023-04-19T18:40:42.372Z,12.02
2023-04-19T18:47:46.737Z,11.88
2023-04-19T18:50:40.542Z,11.87
2023-04-19T18:54:01.532Z,11.85
2023-04-19T18:59:52.483Z,11.78
2023-04-19T19:02:44.040Z,11.78
2023-04-19T19:08:33.438Z,11.73
2023-04-19T19:20:55.237Z,11.67
2023-04-19T19:24:15.366Z,11.62
2023-04-19T19:28:31.591Z,11.58
2023-04-19T19:36:24.112Z,11.45
2023-04-19T19:39:24.162Z,11.43
2023-04-19T19:52:27.417Z,11.24
2023-04-19T19:55:48.728Z,11.18
2023-04-19T19:59:02.295Z,11.12
2023-04-19T20:10:02.332Z,10.96
2023-04-19T20:13:45.342Z,10.96
2023-04-19T20:16:35.772Z,10.94
2023-04-19T20:22:39.750Z,10.90
2023-04-19T20:25:25.867Z,10.89
2023-04-19T20:28:56.652Z,10.89
2023-04-19T20:37:21.620Z,10.82
2023-04-19T20:41:04.095Z,10.78
2023-04-19T20:44:40.214Z,10.75
2023-04-19T20:48:04.922Z,10.74
2023-04-19T20:51:37.904Z,10.74
2023-04-19T20:54:21.890Z,10.75
2023-04-19T20:57:10.191Z,10.74
2023-04-19T21:00:13.394Z,10.71
2023-04-19T21:08:29.996Z,10.70
2023-04-19T21:11:43.808Z,10.71
2023-04-19T21:14:38.365Z,10.73
2023-04-19T21:17:40.744Z,10.75
2023-04-19T21:20:26.146Z,10.77
2023-04-19T21:23:39.815Z,10.77
2023-04-19T21:26:44.072Z,10.76
2023-04-19T21:29:22.953Z,10.76
2023-04-19T21:32:26.857Z,10.77
2023-04-19T21:35:04.491Z,10.77
2023-04-19T21:37:48.904Z,10.75
2023-04-19T21:40:35.270Z,10.77
2023-04-19T21:43:19.298Z,10.79
2023-04-19T21:45:58.041Z,10.81
2023-04-19T21:49:14.217Z,10.81
2023-04-19T21:53:04.679Z,10.82
2023-04-19T21:56:04.032Z,10.81
2023-04-19T21:59:13.190Z,10.81
2023-04-19T22:02:09.142Z,10.80
2023-04-19T22:05:47.622Z,10.80
2023-04-19T22:08:52.239Z,10.81
2023-04-19T22:11:24.191Z,10.79
2023-04-19T22:14:03.197Z,10.77
2023-04-19T22:17:03.848Z,10.76
2023-04-19T22:19:44.898Z,10.79
2023-04-19T22:22:27.804Z,10.84
2023-04-19T22:25:00.160Z,10.78
2023-04-19T22:27:35.177Z,10.88
2023-04-19T22:30:18.631Z,10.88
2023-04-19T22:33:00.017Z,10.88
2023-04-19T22:35:46.857Z,10.88
2023-04-19T22:38:18.977Z,10.90
2023-04-19T22:41:15.289Z,10.87
2023-04-19T22:43:50.249Z,10.89
2023-04-19T22:47:03.701Z,10.85
2023-04-19T22:49:49.565Z,10.84
2023-04-19T22:52:26.207Z,10.81
2023-04-19T22:55:44.669Z,10.79
2023-04-19T22:58:27.115Z,10.77
2023-04-19T23:01:03.127Z,10.75
2023-04-19T23:04:10.196Z,10.77
2023-04-19T23:06:51.061Z,10.80
2023-04-19T23:09:32.786Z,10.81
2023-04-19T23:12:08.515Z,10.85
2023-04-19T23:18:24.218Z,10.90
2023-04-19T23:21:26.911Z,10.93
2023-04-19T23:24:07.952Z,10.94
2023-04-19T23:27:03.494Z,10.88
2023-04-19T23:30:43.870Z,10.82
2023-04-19T23:33:29.405Z,10.82
2023-04-19T23:36:19.602Z,10.84
2023-04-19T23:39:10.550Z,10.91
2023-04-19T23:41:48.818Z,10.96
2023-04-19T23:44:51.188Z,11.00
2023-04-19T23:47:26.434Z,11.03
2023-04-19T23:50:03.412Z,11.03
2023-04-19T23:53:11.602Z,11.00
2023-04-19T23:55:53.027Z,10.96
2023-04-19T23:59:01.263Z,10.93
